createdAt,value
2022-12-14T17:28:44.910Z,99841.59
2022-12-14T17:33:54.007Z,99849.61
2022-12-14T17:38:59.475Z,99849.17
2022-12-14T17:44:05.352Z,99862.33
2022-12-14T17:49:13.245Z,99871.87
2022-12-14T17:54:24.619Z,99875.12
2022-12-14T17:59:28.307Z,99864.23
2022-12-14T18:04:33.715Z,99861.98
2022-12-14T18:09:39.135Z,99858.03
2022-12-14T18:14:45.226Z,99867.59
2022-12-14T18:19:51.319Z,99861.18
2022-12-14T18:24:56.721Z,99863.37
2022-12-14T18:30:02.202Z,99865.02
2022-12-14T18:35:09.804Z,99865.51
2022-12-14T18:40:17.917Z,99870.63
2022-12-14T18:45:26.405Z,99863.90
2022-12-14T18:50:32.075Z,99877.97
2022-12-14T18:55:37.546Z,99881.67
2022-12-14T19:00:43.033Z,99880.61
2022-12-14T19:05:48.607Z,99874.13
2022-12-14T19:10:54.036Z,99866.25
2022-12-14T19:15:59.581Z,99878.77
2022-12-14T19:21:06.448Z,99877.91
2022-12-14T19:26:12.306Z,99878.05
2022-12-14T19:31:18.746Z,99872.40
2022-12-14T19:36:24.991Z,99872.42
2022-12-14T19:41:31.632Z,99870.72
2022-12-14T19:46:37.221Z,99870.64
2022-12-14T19:51:42.720Z,99871.14
2022-12-14T19:56:49.199Z,99866.54
2022-12-14T20:01:54.963Z,99867.09
2022-12-14T20:07:00.903Z,99868.30
2022-12-14T20:12:08.560Z,99865.62
2022-12-14T20:17:15.220Z,99871.27
2022-12-14T20:22:20.795Z,99874.25
2022-12-14T20:27:26.693Z,99865.57
2022-12-14T20:32:32.264Z,99861.22
2022-12-14T20:37:38.147Z,99858.92
2022-12-14T20:42:44.048Z,99856.75
2022-12-14T20:47:51.370Z,99859.73
2022-12-14T20:52:56.845Z,99870.64
2022-12-14T20:58:02.698Z,99867.59
2022-12-14T21:03:08.367Z,99877.46
2022-12-14T21:08:15.731Z,99876.30
2022-12-14T21:13:21.117Z,99871.30
2022-12-14T21:18:26.790Z,99871.84
2022-12-14T21:23:32.837Z,99869.77
2022-12-14T21:28:38.348Z,99869.39
2022-12-14T21:33:49.744Z,99865.91
2022-12-14T21:38:54.317Z,99876.16
2022-12-14T21:44:00.753Z,99877.12
2022-12-14T21:49:06.975Z,99875.98
2022-12-14T21:54:15.548Z,99885.53
2022-12-14T21:59:38.844Z,99897.34
2022-12-14T22:04:47.095Z,99893.00
2022-12-14T22:09:52.696Z,99886.45
2022-12-14T22:14:58.265Z,99886.52
2022-12-14T22:20:04.084Z,99882.23
2022-12-14T22:25:10.175Z,99881.20
2022-12-14T22:30:15.641Z,99881.75
2022-12-14T22:35:21.245Z,99887.78
2022-12-14T22:40:26.971Z,99886.63
2022-12-14T22:45:32.362Z,99879.52
2022-12-14T22:50:37.760Z,99884.16
2022-12-14T22:55:45.108Z,99878.30
2022-12-14T23:00:54.201Z,99870.92
2022-12-14T23:06:02.233Z,99869.58
2022-12-14T23:11:24.975Z,99876.95
2022-12-14T23:16:49.965Z,99879.23
2022-12-14T23:22:13.476Z,99877.67
2022-12-14T23:27:36.945Z,99877.41
2022-12-14T23:33:00.166Z,99874.05
2022-12-14T23:38:25.495Z,99876.32
2022-12-14T23:43:48.684Z,99880.27
2022-12-14T23:49:15.905Z,99872.52
2022-12-14T23:54:37.259Z,99877.83
